Time;durP1;ratioP1;P1;durP2;ratioP2;P2;SDS_P1;SDS_P2;PMS_P1;PMS_P2;Temp;Humidity;BMP_temperature;BMP_pressure;BME280_temperature;BME280_humidity;BME280_pressure;Samples;Min_cycle;Max_cycle;Signal;HPM_P1;HPM_P2
2021/12/11 00:01:52;;;;;;;0.55;0.55;;;8.40;99.90;;;;;;4993890;28;20030;-77
2021/12/11 00:04:23;;;;;;;0.00;0.00;;;8.50;99.90;;;;;;4992677;28;20453;-77
2021/12/11 00:06:53;;;;;;;0.30;0.20;;;8.50;99.90;;;;;;4994123;28;20258;-77
2021/12/11 00:09:46;;;;;;;0.00;0.00;;;8.50;99.90;;;;;;5008092;28;20037;-77
2021/12/11 00:12:36;;;;;;;4.60;1.48;;;8.50;99.90;;;;;;5004946;28;20068;-77
2021/12/11 00:15:14;;;;;;;0.03;0.03;;;8.50;99.90;;;;;;4993911;28;20026;-77
2021/12/11 00:17:40;;;;;;;1.30;1.02;;;8.50;99.90;;;;;;4993763;28;20528;-77
2021/12/11 00:20:14;;;;;;;2.10;1.52;;;8.50;99.90;;;;;;4993572;28;20042;-77
2021/12/11 00:22:41;;;;;;;0.15;0.15;;;8.50;99.90;;;;;;4993827;28;20096;-77
2021/12/11 00:25:09;;;;;;;0.17;0.17;;;8.50;99.90;;;;;;4996329;28;20088;-77
2021/12/11 00:27:38;;;;;;;0.10;0.10;;;8.50;99.90;;;;;;5013284;28;20500;-77
2021/12/11 00:30:10;;;;;;;2.47;1.40;;;8.50;99.90;;;;;;5013359;28;20030;-77
2021/12/11 00:32:37;;;;;;;0.00;0.00;;;8.50;99.90;;;;;;5013413;28;20022;-77
2021/12/11 00:35:22;;;;;;;0.00;0.00;;;8.40;99.90;;;;;;5013056;28;20030;-77
2021/12/11 00:37:48;;;;;;;0.17;0.13;;;8.40;99.90;;;;;;5013350;28;20026;-77
2021/12/11 00:40:25;;;;;;;0.75;0.75;;;8.40;99.90;;;;;;5012089;28;20041;-77
2021/12/11 00:42:56;;;;;;;0.00;0.00;;;8.40;99.90;;;;;;5013230;28;20477;-77
2021/12/11 00:45:28;;;;;;;0.52;0.35;;;8.30;99.90;;;;;;5012826;28;20040;-77
2021/12/11 00:48:01;;;;;;;0.63;0.63;;;8.30;99.90;;;;;;5013085;28;20022;-77
2021/12/11 00:50:29;;;;;;;;;;;8.20;99.90;;;;;;5013216;28;20080;-76
2021/12/11 00:53:08;;;;;;;1.17;1.08;;;8.10;99.90;;;;;;5009572;28;20339;-77
2021/12/11 00:55:42;;;;;;;0.00;0.00;;;8.00;99.90;;;;;;4993473;28;20026;-77
2021/12/11 00:58:22;;;;;;;7.38;1.75;;;7.90;99.90;;;;;;4992635;28;20077;-77
2021/12/11 01:00:55;;;;;;;3.72;1.42;;;7.80;99.90;;;;;;4993152;28;20121;-77
2021/12/11 01:03:30;;;;;;;0.00;0.00;;;7.80;99.90;;;;;;4991849;28;20122;-77
2021/12/11 01:05:58;;;;;;;0.88;0.88;;;7.70;99.90;;;;;;4993204;28;20485;-77
2021/12/11 01:08:32;;;;;;;0.25;0.25;;;7.70;99.90;;;;;;4992772;28;20022;-77
2021/12/11 01:11:13;;;;;;;0.98;0.57;;;7.60;99.90;;;;;;4991474;28;20022;-77
2021/12/11 01:13:53;;;;;;;0.08;0.08;;;7.70;99.90;;;;;;4992411;28;20057;-77
2021/12/11 01:16:20;;;;;;;0.00;0.00;;;7.70;99.90;;;;;;4992928;28;20053;-77
2021/12/11 01:18:55;;;;;;;0.00;0.00;;;7.70;99.90;;;;;;4992626;28;20500;-77
2021/12/11 01:24:27;;;;;;;0.00;0.00;;;7.70;99.90;;;;;;4992867;28;20175;-77
2021/12/11 01:26:55;;;;;;;0.00;0.00;;;7.60;99.90;;;;;;5009694;28;20084;-77
2021/12/11 01:29:22;;;;;;;0.10;0.10;;;7.50;99.90;;;;;;5012531;28;20049;-76
2021/12/11 01:31:51;;;;;;;0.03;0.03;;;7.40;99.90;;;;;;5012534;28;20539;-77
2021/12/11 01:34:17;;;;;;;0.00;0.00;;;7.40;99.90;;;;;;5012070;28;20030;-77
2021/12/11 01:36:43;;;;;;;0.45;0.45;;;7.30;99.90;;;;;;5012558;28;20030;-77
2021/12/11 01:39:15;;;;;;;0.00;0.00;;;7.40;99.90;;;;;;5010857;28;20030;-77
2021/12/11 01:41:42;;;;;;;0.30;0.30;;;7.40;99.90;;;;;;5012616;28;20473;-77
2021/12/11 01:44:14;;;;;;;1.38;0.85;;;7.50;99.90;;;;;;5012265;28;20105;-77
2021/12/11 01:46:40;;;;;;;0.00;0.00;;;7.60;99.90;;;;;;5012280;28;20117;-77
2021/12/11 01:49:11;;;;;;;0.00;0.00;;;7.60;99.90;;;;;;5011724;28;20026;-77
2021/12/11 01:51:45;;;;;;;0.13;0.13;;;7.60;99.90;;;;;;5012276;28;20157;-76
2021/12/11 01:54:18;;;;;;;0.40;0.40;;;7.60;99.90;;;;;;5012068;28;20034;-76
2021/12/11 01:56:47;;;;;;;;;;;7.60;99.90;;;;;;5012781;28;20510;-77
2021/12/11 01:59:23;;;;;;;0.22;0.22;;;7.60;99.90;;;;;;5002432;28;19910;-77
2021/12/11 02:01:52;;;;;;;0.00;0.00;;;7.50;99.90;;;;;;4992303;28;20105;-77
2021/12/11 02:04:21;;;;;;;0.03;0.03;;;7.40;99.90;;;;;;4990968;28;20030;-77
2021/12/11 02:06:51;;;;;;;0.00;0.00;;;7.40;99.90;;;;;;4995744;28;20042;-76
2021/12/11 02:09:29;;;;;;;0.00;0.00;;;7.30;99.90;;;;;;4995961;28;20041;-76
2021/12/11 02:12:16;;;;;;;0.30;0.30;;;7.30;99.90;;;;;;4994463;28;20022;-77
2021/12/11 02:14:47;;;;;;;0.00;0.00;;;7.30;99.90;;;;;;4996283;28;20029;-77
2021/12/11 02:17:20;;;;;;;0.00;0.00;;;7.30;99.90;;;;;;4995759;28;20026;-77
2021/12/11 02:19:47;;;;;;;0.28;0.28;;;7.20;99.90;;;;;;4996070;28;20031;-77
2021/12/11 02:22:16;;;;;;;0.47;0.47;;;7.10;99.90;;;;;;4995745;28;20023;-77
2021/12/11 02:24:47;;;;;;;0.00;0.00;;;7.10;99.90;;;;;;4996056;28;20389;-77
2021/12/11 02:27:22;;;;;;;0.00;0.00;;;7.10;99.90;;;;;;4995838;28;20029;-77
2021/12/11 02:30:00;;;;;;;0.57;0.25;;;7.10;99.90;;;;;;4996094;28;20480;-77
2021/12/11 02:32:39;;;;;;;0.08;0.08;;;7.10;99.90;;;;;;4995751;28;20544;-77
2021/12/11 02:35:13;;;;;;;2.85;0.35;;;7.10;99.90;;;;;;4995616;28;20490;-77
2021/12/11 02:37:46;;;;;;;0.43;0.20;;;7.10;99.90;;;;;;4995791;28;20480;-77
2021/12/11 02:40:16;;;;;;;0.00;0.00;;;7.00;99.90;;;;;;4995579;28;20022;-77
2021/12/11 02:43:04;;;;;;;0.30;0.30;;;7.00;99.90;;;;;;4995838;28;20026;-77
2021/12/11 02:45:50;;;;;;;0.00;0.00;;;7.00;99.90;;;;;;4994491;28;20180;-77
2021/12/11 02:48:37;;;;;;;0.00;0.00;;;6.90;99.90;;;;;;4995419;28;20038;-77
2021/12/11 02:51:15;;;;;;;0.10;0.10;;;6.80;99.90;;;;;;4992721;28;20493;-77
2021/12/11 02:53:51;;;;;;;0.00;0.00;;;6.80;99.90;;;;;;4995064;28;20498;-77
2021/12/11 02:56:23;;;;;;;0.00;0.00;;;6.70;99.90;;;;;;4995645;28;20038;-77
2021/12/11 02:58:56;;;;;;;0.00;0.00;;;6.70;99.90;;;;;;4995211;28;20497;-76
2021/12/11 03:01:30;;;;;;;0.00;0.00;;;6.60;99.90;;;;;;4993547;28;20038;-76
2021/12/11 03:04:24;;;;;;;0.00;0.00;;;6.70;99.90;;;;;;4995420;28;20037;-77
2021/12/11 03:06:52;;;;;;;0.00;0.00;;;6.60;99.90;;;;;;4995266;28;20497;-77
2021/12/11 03:09:25;;;;;;;0.20;0.20;;;6.60;99.90;;;;;;4993596;28;20027;-76
2021/12/11 03:11:54;;;;;;;0.08;0.08;;;6.60;99.90;;;;;;4998005;28;20022;-76
2021/12/11 03:14:23;;;;;;;0.00;0.00;;;6.60;99.90;;;;;;5014339;28;20127;-76
2021/12/11 03:16:50;;;;;;;0.05;0.05;;;6.70;99.90;;;;;;5013104;28;20030;-77
2021/12/11 03:19:20;;;;;;;0.20;0.20;;;6.70;99.90;;;;;;5014238;28;20397;-77
2021/12/11 03:21:47;;;;;;;0.00;0.00;;;6.70;99.90;;;;;;5012885;28;20382;-77
2021/12/11 03:24:13;;;;;;;0.00;0.00;;;6.80;99.90;;;;;;5013031;28;20564;-77
2021/12/11 03:26:40;;;;;;;0.00;0.00;;;6.80;99.90;;;;;;4999157;28;20042;-77
2021/12/11 03:29:08;;;;;;;0.00;0.00;;;6.80;99.90;;;;;;4994851;28;20081;-77
2021/12/11 03:31:38;;;;;;;0.10;0.10;;;6.80;99.90;;;;;;4994956;28;20077;-77
2021/12/11 03:34:07;;;;;;;0.75;0.52;;;6.90;99.90;;;;;;4994271;28;20030;-77
2021/12/11 03:36:34;;;;;;;9.63;2.75;;;6.90;99.90;;;;;;4994755;28;20018;-76
2021/12/11 03:39:29;;;;;;;0.82;0.82;;;6.90;99.90;;;;;;4994229;28;20026;-77
2021/12/11 03:41:57;;;;;;;0.00;0.00;;;6.90;99.90;;;;;;4992497;28;20038;-77
2021/12/11 03:44:23;;;;;;;0.00;0.00;;;7.00;99.90;;;;;;4994587;28;20033;-77
2021/12/11 03:46:53;;;;;;;0.00;0.00;;;6.90;99.90;;;;;;4994378;28;20022;-77
2021/12/11 03:49:22;;;;;;;1.67;0.98;;;7.00;99.90;;;;;;4994308;28;20023;-77
2021/12/11 03:51:50;;;;;;;0.20;0.20;;;7.00;99.90;;;;;;4994235;28;20019;-77
2021/12/11 03:54:27;;;;;;;0.20;0.20;;;7.00;99.90;;;;;;4993916;28;20070;-77
2021/12/11 03:56:53;;;;;;;0.00;0.00;;;7.00;99.90;;;;;;4994446;28;20046;-77
2021/12/11 03:59:19;;;;;;;1.65;0.52;;;7.00;99.90;;;;;;4994086;28;20405;-77
2021/12/11 04:01:52;;;;;;;0.10;0.10;;;7.00;99.90;;;;;;4993902;28;20054;-77
2021/12/11 04:04:29;;;;;;;3.10;2.33;;;7.00;99.90;;;;;;4993906;28;20035;-77
2021/12/11 04:06:57;;;;;;;0.00;0.00;;;7.00;99.90;;;;;;4994159;28;20501;-77
2021/12/11 04:09:23;;;;;;;0.00;0.00;;;7.00;99.90;;;;;;4993329;28;20026;-77
2021/12/11 04:11:51;;;;;;;4.13;1.17;;;7.00;99.90;;;;;;4992243;28;20034;-77
2021/12/11 04:14:21;;;;;;;0.22;0.22;;;7.00;99.90;;;;;;4992684;28;20561;-76
2021/12/11 04:16:48;;;;;;;0.00;0.00;;;7.00;99.90;;;;;;4993794;28;20473;-76
2021/12/11 04:19:14;;;;;;;2.20;2.00;;;7.00;99.90;;;;;;4993357;28;20166;-77
2021/12/11 04:21:41;;;;;;;0.00;0.00;;;7.10;99.90;;;;;;4993728;28;20482;-76
2021/12/11 04:24:09;;;;;;;0.00;0.00;;;7.10;99.90;;;;;;4993710;28;20034;-77
2021/12/11 04:26:36;;;;;;;2.72;0.98;;;7.00;99.90;;;;;;5008269;28;20025;-76
2021/12/11 04:29:03;;;;;;;0.80;0.68;;;7.00;99.90;;;;;;5011748;28;20025;-76
2021/12/11 04:31:32;;;;;;;0.00;0.00;;;7.10;99.90;;;;;;5013757;28;20045;-76
2021/12/11 04:34:02;;;;;;;0.10;0.10;;;7.00;99.90;;;;;;5011627;28;20378;-77
2021/12/11 04:36:34;;;;;;;1.95;0.93;;;7.00;99.90;;;;;;5012030;28;20026;-77
2021/12/11 04:39:02;;;;;;;0.00;0.00;;;7.00;99.90;;;;;;5013290;28;20556;-77
2021/12/11 04:41:36;;;;;;;0.10;0.10;;;7.10;99.90;;;;;;5013105;28;20104;-76
2021/12/11 04:44:12;;;;;;;0.05;0.05;;;7.00;99.90;;;;;;5013009;28;20033;-77
2021/12/11 04:46:38;;;;;;;0.30;0.25;;;7.10;99.90;;;;;;5011870;28;20050;-77
2021/12/11 04:49:12;;;;;;;7.97;1.23;;;7.10;99.90;;;;;;5012401;28;20053;-77
2021/12/11 04:51:45;;;;;;;0.00;0.00;;;7.00;99.90;;;;;;5013156;28;20429;-77
2021/12/11 04:54:33;;;;;;;0.05;0.05;;;7.00;99.90;;;;;;5007877;28;20422;-77
2021/12/11 05:08:25;;;;;;;0.10;0.10;;;6.60;99.90;;;;;;4992854;28;20033;-76
2021/12/11 05:11:04;;;;;;;0.28;0.28;;;6.50;99.90;;;;;;4992997;28;20038;-76
2021/12/11 05:13:32;;;;;;;0.00;0.00;;;6.40;99.90;;;;;;4991089;28;20495;-77
2021/12/11 05:16:01;;;;;;;0.00;0.00;;;6.40;99.90;;;;;;4992521;28;20076;-76
2021/12/11 05:18:29;;;;;;;0.00;0.00;;;6.30;99.90;;;;;;4992839;28;20038;-76
2021/12/11 05:21:00;;;;;;;0.00;0.00;;;6.20;99.90;;;;;;4992836;28;20026;-76
2021/12/11 05:23:27;;;;;;;0.00;0.00;;;6.20;99.90;;;;;;4993018;28;20023;-76
2021/12/11 05:25:53;;;;;;;0.00;0.00;;;6.10;99.90;;;;;;5001781;28;20132;-76
2021/12/11 05:28:19;;;;;;;2.17;1.35;;;6.10;99.90;;;;;;5012314;28;20022;-77
2021/12/11 05:30:48;;;;;;;1.38;0.63;;;6.10;99.90;;;;;;5013037;28;20037;-76
2021/12/11 05:33:14;;;;;;;0.00;0.00;;;6.10;99.90;;;;;;5013978;28;20109;-76
2021/12/11 05:35:41;;;;;;;2.00;1.77;;;6.00;99.90;;;;;;5013567;28;20033;-76
2021/12/11 05:38:10;;;;;;;0.00;0.00;;;6.00;99.90;;;;;;5012265;28;20107;-76
2021/12/11 05:40:39;;;;;;;0.10;0.10;;;5.90;99.90;;;;;;5016190;28;20104;-77
2021/12/11 05:43:06;;;;;;;0.00;0.00;;;5.90;99.90;;;;;;5016886;28;20022;-77
2021/12/11 05:45:32;;;;;;;0.35;0.35;;;5.80;99.90;;;;;;5017277;28;20446;-76
2021/12/11 05:47:59;;;;;;;0.00;0.00;;;5.70;99.90;;;;;;5016839;28;20037;-77
2021/12/11 05:50:32;;;;;;;0.00;0.00;;;5.70;99.90;;;;;;5017890;28;20041;-76
2021/12/11 05:52:58;;;;;;;0.00;0.00;;;5.70;99.90;;;;;;5013053;28;20038;-77
2021/12/11 05:55:25;;;;;;;0.00;0.00;;;5.80;99.90;;;;;;4996756;28;20084;-77
2021/12/11 05:57:55;;;;;;;0.00;0.00;;;5.90;99.90;;;;;;4994774;28;20061;-77
2021/12/11 06:00:26;;;;;;;0.00;0.00;;;6.00;99.90;;;;;;4994877;28;20117;-77
2021/12/11 06:02:52;;;;;;;0.00;0.00;;;6.10;99.90;;;;;;4994961;28;20027;-77
2021/12/11 06:05:18;;;;;;;0.10;0.10;;;6.20;99.90;;;;;;4996125;28;20081;-77
2021/12/11 06:07:44;;;;;;;0.30;0.30;;;6.00;99.90;;;;;;4996254;28;20437;-77
2021/12/11 06:10:14;;;;;;;0.00;0.00;;;6.00;99.90;;;;;;4994795;28;20026;-77
2021/12/11 06:12:40;;;;;;;0.68;0.68;;;5.90;99.90;;;;;;4995704;28;20029;-77
2021/12/11 06:15:06;;;;;;;0.03;0.03;;;5.80;99.90;;;;;;4995018;28;20062;-77
2021/12/11 06:17:33;;;;;;;0.38;0.38;;;5.80;99.90;;;;;;4995967;28;20045;-76
2021/12/11 06:20:01;;;;;;;0.03;0.03;;;5.80;99.90;;;;;;4995871;28;20038;-76
2021/12/11 06:22:30;;;;;;;0.28;0.28;;;5.90;99.90;;;;;;4996191;28;20519;-76
2021/12/11 06:24:58;;;;;;;0.15;0.15;;;5.90;99.90;;;;;;4997299;28;20500;-76
2021/12/11 06:27:25;;;;;;;0.00;0.00;;;6.00;99.90;;;;;;5015485;28;20037;-76
2021/12/11 06:29:52;;;;;;;0.00;0.00;;;6.00;99.90;;;;;;5015639;28;20025;-76
2021/12/11 06:32:18;;;;;;;0.00;0.00;;;6.10;99.90;;;;;;5015506;28;20528;-76
2021/12/11 06:34:44;;;;;;;0.65;0.65;;;6.10;99.90;;;;;;5015368;28;20026;-76
2021/12/11 06:37:14;;;;;;;0.00;0.00;;;6.10;99.90;;;;;;5015202;28;20445;-76
2021/12/11 06:39:40;;;;;;;0.08;0.08;;;6.10;99.90;;;;;;5015455;28;20037;-76
2021/12/11 06:42:09;;;;;;;0.00;0.00;;;6.10;99.90;;;;;;5015322;28;20073;-76
2021/12/11 06:44:36;;;;;;;0.00;0.00;;;6.10;99.90;;;;;;5015194;28;20515;-77
2021/12/11 06:47:06;;;;;;;0.88;0.68;;;6.10;99.90;;;;;;5015315;28;20026;-77
2021/12/11 06:49:34;;;;;;;0.00;0.00;;;6.00;99.90;;;;;;5014675;28;20032;-76
2021/12/11 06:52:02;;;;;;;0.80;0.65;;;6.10;99.90;;;;;;5014247;28;20034;-76
2021/12/11 06:54:28;;;;;;;0.05;0.05;;;6.10;99.90;;;;;;4999848;28;20047;-76
2021/12/11 06:56:54;;;;;;;0.00;0.00;;;6.10;99.90;;;;;;4994296;28;20524;-76
2021/12/11 06:59:21;;;;;;;0.08;0.08;;;6.10;99.90;;;;;;4995125;28;20807;-76
2021/12/11 07:01:47;;;;;;;0.28;0.28;;;6.10;99.90;;;;;;4995098;28;20030;-76
2021/12/11 07:04:13;;;;;;;0.00;0.00;;;6.10;99.90;;;;;;4995061;28;20077;-76
2021/12/11 07:06:43;;;;;;;0.00;0.00;;;6.20;99.90;;;;;;4995480;28;20026;-76
2021/12/11 07:09:12;;;;;;;0.00;0.00;;;6.30;99.90;;;;;;4994762;28;20029;-76
2021/12/11 07:11:43;;;;;;;5.53;1.08;;;6.40;99.90;;;;;;4993514;28;20027;-77
2021/12/11 07:14:09;;;;;;;1.05;0.68;;;6.50;99.90;;;;;;4994738;28;20222;-77
2021/12/11 07:16:36;;;;;;;6.13;2.03;;;6.50;99.90;;;;;;4994288;28;20496;-77
2021/12/11 07:19:05;;;;;;;4.13;2.90;;;6.70;99.90;;;;;;4994620;28;20556;-76
2021/12/11 07:21:30;;;;;;;2.03;1.00;;;6.70;99.90;;;;;;4994884;28;20030;-76
2021/12/11 07:23:56;;;;;;;0.00;0.00;;;6.70;99.90;;;;;;4995098;28;20026;-77
2021/12/11 07:26:32;;;;;;;9.40;2.45;;;6.70;99.90;;;;;;5007599;28;20029;-77
2021/12/11 07:29:08;;;;;;;3.72;1.35;;;6.70;99.90;;;;;;5014392;28;20042;-77
2021/12/11 07:31:35;;;;;;;0.10;0.10;;;6.60;99.90;;;;;;5014479;28;20026;-77
2021/12/11 07:34:01;;;;;;;0.20;0.20;;;6.50;99.90;;;;;;5014026;28;20439;-77
2021/12/11 07:36:27;;;;;;;0.90;0.90;;;6.40;99.90;;;;;;5014374;28;20030;-77
2021/12/11 07:38:54;;;;;;;5.57;1.85;;;6.30;99.90;;;;;;5014142;28;20021;-77
2021/12/11 07:41:20;;;;;;;0.55;0.35;;;6.20;99.90;;;;;;5013322;28;20101;-77
2021/12/11 07:43:47;;;;;;;3.53;0.35;;;6.20;99.90;;;;;;5014213;28;20029;-77
2021/12/11 07:46:17;;;;;;;0.30;0.30;;;6.10;99.90;;;;;;5014045;28;20097;-77
2021/12/11 07:48:44;;;;;;;1.27;0.80;;;6.00;99.90;;;;;;5013815;28;20076;-77
2021/12/11 07:51:10;;;;;;;1.88;0.80;;;6.00;99.90;;;;;;5013826;28;20386;-77
2021/12/11 07:53:36;;;;;;;0.17;0.17;;;6.00;99.90;;;;;;5005577;28;20026;-77
2021/12/11 07:56:02;;;;;;;0.20;0.20;;;6.00;99.90;;;;;;4994598;28;20037;-77
2021/12/11 07:58:33;;;;;;;1.75;0.75;;;6.00;99.90;;;;;;4993963;28;20058;-77
2021/12/11 08:01:00;;;;;;;0.00;0.00;;;6.00;99.90;;;;;;4992726;28;20121;-77
2021/12/11 08:03:26;;;;;;;0.82;0.82;;;6.00;99.90;;;;;;4993092;28;20038;-77
2021/12/11 08:05:53;;;;;;;0.00;0.00;;;6.00;99.90;;;;;;4994045;28;20123;-77
2021/12/11 08:08:21;;;;;;;0.32;0.32;;;6.00;99.90;;;;;;4993742;28;20448;-77
2021/12/11 08:10:51;;;;;;;0.32;0.32;;;6.00;99.90;;;;;;4994239;28;20109;-77
2021/12/11 08:13:17;;;;;;;0.08;0.08;;;6.00;99.90;;;;;;4993276;28;20485;-77
2021/12/11 08:15:44;;;;;;;0.30;0.30;;;6.00;99.90;;;;;;4991707;28;20085;-77
2021/12/11 08:18:13;;;;;;;4.47;2.28;;;6.10;99.90;;;;;;4993546;28;20019;-78
2021/12/11 08:20:41;;;;;;;0.60;0.55;;;6.10;99.90;;;;;;4993475;28;20041;-77
2021/12/11 08:23:09;;;;;;;0.10;0.10;;;6.00;99.90;;;;;;4993478;28;20019;-77
2021/12/11 08:25:36;;;;;;;1.13;1.02;;;6.00;99.90;;;;;;4999992;28;20010;-77
2021/12/11 08:28:03;;;;;;;0.10;0.10;;;6.10;99.90;;;;;;5013192;28;20512;-77
2021/12/11 08:30:32;;;;;;;0.63;0.63;;;6.20;99.90;;;;;;5013406;28;20026;-78
2021/12/11 08:32:59;;;;;;;0.50;0.50;;;6.20;99.90;;;;;;5013179;28;20088;-77
2021/12/11 08:35:25;;;;;;;0.52;0.22;;;6.30;99.90;;;;;;5012907;28;20527;-78
2021/12/11 08:37:52;;;;;;;0.00;0.00;;;6.40;99.90;;;;;;5012783;28;20113;-77
2021/12/11 08:40:22;;;;;;;1.35;1.25;;;6.60;99.90;;;;;;5012745;28;20034;-77
2021/12/11 08:42:49;;;;;;;6.35;2.65;;;6.90;99.90;;;;;;5013294;28;20022;-78
2021/12/11 08:45:23;;;;;;;1.45;1.30;;;7.10;99.90;;;;;;5011675;28;20033;-78
2021/12/11 08:47:56;;;;;;;0.00;0.00;;;7.30;99.90;;;;;;5013046;28;20046;-77
2021/12/11 08:50:26;;;;;;;0.03;0.03;;;7.30;99.90;;;;;;5012537;28;20173;-77
2021/12/11 08:52:53;;;;;;;4.95;2.40;;;7.40;99.90;;;;;;5012580;28;20033;-77
2021/12/11 08:55:27;;;;;;;0.20;0.20;;;7.50;99.90;;;;;;5012604;28;20030;-78
2021/12/11 08:57:54;;;;;;;11.10;1.35;;;7.60;99.90;;;;;;5012716;28;20050;-78
2021/12/11 09:00:29;;;;;;;0.03;0.03;;;7.80;99.90;;;;;;4994029;28;20096;-77
2021/12/11 09:03:05;;;;;;;1.40;1.30;;;7.90;99.90;;;;;;4992430;28;20478;-77
2021/12/11 09:05:45;;;;;;;0.52;0.52;;;8.00;99.90;;;;;;4993034;28;20034;-77
2021/12/11 09:08:32;;;;;;;0.63;0.63;;;8.00;99.90;;;;;;4992762;28;20081;-78
2021/12/11 09:11:12;;;;;;;0.20;0.20;;;8.00;99.90;;;;;;4993152;28;20048;-77
2021/12/11 09:13:57;;;;;;;0.52;0.52;;;8.00;99.90;;;;;;4991971;28;20030;-77
2021/12/11 09:16:30;;;;;;;0.70;0.70;;;8.10;99.90;;;;;;4991530;28;20085;-78
2021/12/11 09:19:05;;;;;;;1.17;1.08;;;8.20;99.90;;;;;;4992711;28;20048;-77
2021/12/11 09:21:52;;;;;;;0.28;0.28;;;8.20;99.90;;;;;;4992688;28;20559;-78
2021/12/11 09:24:27;;;;;;;0.20;0.20;;;8.40;99.90;;;;;;4992756;28;20068;-77
2021/12/11 09:26:58;;;;;;;0.00;0.00;;;8.50;99.90;;;;;;5009644;28;20513;-77
2021/12/11 09:29:51;;;;;;;4.07;0.43;;;8.50;99.90;;;;;;5012375;28;20447;-77
2021/12/11 09:32:27;;;;;;;1.23;1.17;;;8.50;99.90;;;;;;4994998;28;20085;-77
2021/12/11 09:35:09;;;;;;;0.20;0.20;;;8.50;99.90;;;;;;4992440;28;20030;-78
2021/12/11 09:37:35;;;;;;;0.63;0.63;;;8.40;99.90;;;;;;4992965;28;20061;-78
2021/12/11 09:40:19;;;;;;;0.45;0.40;;;8.40;99.90;;;;;;4992373;28;20632;-77
2021/12/11 09:42:45;;;;;;;0.10;0.10;;;8.30;99.90;;;;;;4992995;28;20059;-77
2021/12/11 09:45:19;;;;;;;2.75;1.17;;;8.30;99.90;;;;;;4992617;28;20054;-77
2021/12/11 09:47:51;;;;;;;2.33;1.15;;;8.30;99.90;;;;;;4991476;28;20046;-78
2021/12/11 09:50:26;;;;;;;0.55;0.50;;;8.40;99.90;;;;;;4992362;28;20018;-77
2021/12/11 09:52:52;;;;;;;0.60;0.40;;;8.40;99.90;;;;;;4992319;28;20096;-77
2021/12/11 09:55:24;;;;;;;1.02;0.45;;;8.60;99.90;;;;;;4992739;28;20026;-77
2021/12/11 09:58:00;;;;;;;0.30;0.30;;;8.60;99.90;;;;;;4992614;28;20046;-78
2021/12/11 10:00:29;;;;;;;0.13;0.13;;;8.70;99.90;;;;;;4992411;28;20117;-78
2021/12/11 10:02:55;;;;;;;1.20;1.15;;;8.80;99.90;;;;;;4991060;28;20026;-78
2021/12/11 10:05:43;;;;;;;0.30;0.30;;;8.90;99.90;;;;;;4992270;28;20166;-77
2021/12/11 10:08:36;;;;;;;1.85;1.02;;;9.00;99.90;;;;;;4992139;28;20069;-77
2021/12/11 10:11:14;;;;;;;0.30;0.10;;;9.20;99.90;;;;;;4991111;28;20045;-77
2021/12/11 10:13:44;;;;;;;1.02;0.98;;;9.30;99.90;;;;;;4991936;28;20034;-78
2021/12/11 10:16:11;;;;;;;0.63;0.63;;;9.40;99.90;;;;;;4990780;28;20117;-78
2021/12/11 10:18:37;;;;;;;0.10;0.10;;;9.60;99.90;;;;;;4989902;28;20057;-77
2021/12/11 10:21:11;;;;;;;33.33;2.75;;;9.60;99.90;;;;;;4992204;28;20383;-77
2021/12/11 10:23:40;;;;;;;0.30;0.30;;;9.80;99.90;;;;;;4992406;28;20018;-78
2021/12/11 10:26:10;;;;;;;1.17;1.05;;;9.70;99.90;;;;;;5003312;28;20029;-78
2021/12/11 10:28:38;;;;;;;0.45;0.45;;;9.80;99.90;;;;;;5015554;28;20370;-78
2021/12/11 10:31:09;;;;;;;1.10;1.00;;;9.90;99.90;;;;;;5010941;28;20030;-78
2021/12/11 10:33:36;;;;;;;0.63;0.63;;;9.90;99.90;;;;;;4995592;28;20033;-77
2021/12/11 10:36:06;;;;;;;0.30;0.30;;;10.00;99.90;;;;;;4995664;28;20031;-77
2021/12/11 10:38:32;;;;;;;0.22;0.22;;;10.00;99.90;;;;;;4995724;28;20022;-76
2021/12/11 10:41:01;;;;;;;1.02;0.90;;;10.00;99.90;;;;;;4995883;28;20027;-78
2021/12/11 10:43:31;;;;;;;0.00;0.00;;;10.10;99.90;;;;;;4995835;28;20023;-77
2021/12/11 10:45:59;;;;;;;0.10;0.10;;;10.30;99.90;;;;;;4995762;28;20504;-77
2021/12/11 10:48:32;;;;;;;0.30;0.30;;;10.40;99.90;;;;;;4995420;28;20528;-76
2021/12/11 10:51:04;;;;;;;1.25;1.15;;;10.50;99.90;;;;;;4995584;28;20030;-77
2021/12/11 10:53:31;;;;;;;0.93;0.93;;;10.50;99.90;;;;;;4995326;28;20617;-78
2021/12/11 10:55:59;;;;;;;0.25;0.25;;;10.50;99.90;;;;;;5010692;28;20030;-78
2021/12/11 10:58:29;;;;;;;2.65;1.35;;;10.60;99.90;;;;;;4995077;28;20043;-78
2021/12/11 11:01:18;;;;;;;11.70;1.67;;;10.70;99.90;;;;;;4994916;28;20039;-78
2021/12/11 11:03:51;;;;;;;0.73;0.20;;;10.80;99.90;;;;;;4995192;28;20538;-76
2021/12/11 11:06:17;;;;;;;;;;;10.90;99.90;;;;;;4994192;28;20027;-78
2021/12/11 11:08:46;;;;;;;1.55;1.45;;;11.00;99.90;;;;;;4994989;28;20052;-77
2021/12/11 11:11:16;;;;;;;0.68;0.68;;;11.10;99.90;;;;;;4994422;28;20090;-76
2021/12/11 11:13:44;;;;;;;0.15;0.15;;;11.30;99.90;;;;;;4993271;28;20041;-76
2021/12/11 11:16:10;;;;;;;2.05;1.75;;;11.40;99.90;;;;;;4994922;28;20608;-76
2021/12/11 11:18:36;;;;;;;1.80;1.42;;;11.50;99.90;;;;;;4993703;28;20113;-78
2021/12/11 11:21:25;;;;;;;0.38;0.38;;;11.40;99.90;;;;;;4994713;28;20026;-76
2021/12/11 11:23:52;;;;;;;0.10;0.10;;;11.50;99.90;;;;;;4995045;28;20030;-76
2021/12/11 11:26:25;;;;;;;0.35;0.35;;;11.40;99.90;;;;;;5006963;28;20049;-76
2021/12/11 11:28:53;;;;;;;1.15;0.60;;;11.50;99.90;;;;;;5013195;28;20079;-76
2021/12/11 11:31:24;;;;;;;12.02;1.80;;;11.50;99.90;;;;;;5004937;28;20026;-76
2021/12/11 11:33:50;;;;;;;0.00;0.00;;;11.40;99.90;;;;;;4994479;28;20121;-77
2021/12/11 11:36:22;;;;;;;6.70;1.85;;;11.40;99.90;;;;;;4994662;28;20507;-76
2021/12/11 11:38:52;;;;;;;0.55;0.55;;;11.40;99.90;;;;;;4994439;28;20486;-76
2021/12/11 11:41:23;;;;;;;6.72;2.50;;;11.40;99.90;;;;;;4994640;28;20470;-76
2021/12/11 11:43:49;;;;;;;0.43;0.43;;;11.40;99.90;;;;;;4994802;28;20025;-77
2021/12/11 11:46:16;;;;;;;10.43;0.20;;;11.50;99.90;;;;;;4994538;28;20097;-77
2021/12/11 11:48:46;;;;;;;0.68;0.68;;;11.60;99.90;;;;;;4993836;28;20053;-76
2021/12/11 11:51:17;;;;;;;0.00;0.00;;;11.70;99.90;;;;;;4994283;28;20026;-76
2021/12/11 11:53:44;;;;;;;0.08;0.08;;;11.70;99.90;;;;;;4993870;28;20038;-76
2021/12/11 11:56:14;;;;;;;1.98;1.75;;;11.60;99.90;;;;;;4994202;28;20503;-78
2021/12/11 11:58:41;;;;;;;6.72;0.75;;;11.70;99.90;;;;;;4994079;28;20042;-78
2021/12/11 12:01:16;;;;;;;0.10;0.10;;;11.70;99.90;;;;;;4993844;28;20022;-77
2021/12/11 12:03:42;;;;;;;2.92;1.25;;;11.80;99.90;;;;;;4993826;28;20394;-76
2021/12/11 12:06:11;;;;;;;0.13;0.13;;;12.10;99.90;;;;;;4994167;28;20029;-76
2021/12/11 12:08:39;;;;;;;0.00;0.00;;;12.10;99.90;;;;;;4993828;28;20101;-76
2021/12/11 12:11:06;;;;;;;0.00;0.00;;;12.10;99.90;;;;;;4994148;28;20092;-78
2021/12/11 12:13:32;;;;;;;1.20;1.10;;;11.90;99.90;;;;;;4993308;28;20512;-78
2021/12/11 12:16:09;;;;;;;0.10;0.10;;;12.00;99.90;;;;;;4994010;28;20022;-76
2021/12/11 12:18:36;;;;;;;0.10;0.10;;;12.00;99.90;;;;;;4992294;28;20456;-76
2021/12/11 12:21:05;;;;;;;0.00;0.00;;;11.90;99.90;;;;;;4993700;28;20391;-76
2021/12/11 12:23:32;;;;;;;2.47;0.98;;;11.80;99.90;;;;;;4993586;28;20035;-78
2021/12/11 12:26:06;;;;;;;0.75;0.75;;;11.80;99.90;;;;;;5003454;28;20381;-78
2021/12/11 12:28:32;;;;;;;6.47;0.98;;;11.80;99.90;;;;;;5013341;28;20030;-76
2021/12/11 12:31:06;;;;;;;5.18;2.35;;;12.00;99.90;;;;;;5013338;28;20061;-76
2021/12/11 12:33:32;;;;;;;0.00;0.00;;;12.00;99.90;;;;;;5013220;28;20105;-76
2021/12/11 12:35:59;;;;;;;0.00;0.00;;;12.20;99.90;;;;;;5013356;28;20072;-78
2021/12/11 12:38:28;;;;;;;0.63;0.47;;;12.40;99.90;;;;;;5013086;28;20113;-76
2021/12/11 12:41:00;;;;;;;0.10;0.05;;;12.40;99.90;;;;;;5013233;28;20034;-76
2021/12/11 12:44:33;;;;;;;0.00;0.00;;;12.30;99.90;;;;;;5013187;28;20894;-76
2021/12/11 12:46:33;;;;;;;0.32;0.32;;;12.20;99.90;;;;;;4999880;28;20297;-76
2021/12/11 12:49:00;;;;;;;4.22;1.10;;;12.30;99.90;;;;;;5012251;28;20026;-78
2021/12/11 12:51:29;;;;;;;0.00;0.00;;;12.30;99.90;;;;;;5013035;28;20033;-77
2021/12/11 12:53:59;;;;;;;0.00;0.00;;;12.20;99.90;;;;;;5012852;28;20018;-78
2021/12/11 12:56:30;;;;;;;0.00;0.00;;;12.30;99.90;;;;;;5013286;28;20473;-76
2021/12/11 12:59:02;;;;;;;2.80;1.67;;;12.40;99.90;;;;;;5005795;28;20157;-76
2021/12/11 13:01:37;;;;;;;0.77;0.75;;;12.60;99.90;;;;;;4993098;28;20032;-78
2021/12/11 13:04:05;;;;;;;0.00;0.00;;;12.80;99.90;;;;;;4992925;28;20022;-78
2021/12/11 13:06:37;;;;;;;0.65;0.65;;;12.80;99.90;;;;;;4993300;28;20084;-76
2021/12/11 13:09:43;;;;;;;0.05;0.05;;;13.00;99.90;;;;;;4992689;28;20026;-76
2021/12/11 13:12:20;;;;;;;5.95;0.70;;;13.00;99.90;;;;;;4990373;28;20386;-76
2021/12/11 13:14:48;;;;;;;0.32;0.32;;;12.90;99.90;;;;;;4993145;28;20053;-78
2021/12/11 13:17:22;;;;;;;0.50;0.50;;;12.30;99.90;;;;;;4992667;28;20482;-78
2021/12/11 13:19:54;;;;;;;1.02;0.65;;;12.10;99.90;;;;;;4990394;28;20058;-76
2021/12/11 13:22:30;;;;;;;1.80;1.15;;;12.20;99.90;;;;;;4992374;28;20037;-76
2021/12/11 13:25:00;;;;;;;0.30;0.30;;;12.20;99.90;;;;;;4992784;28;20018;-76
2021/12/11 13:27:28;;;;;;;0.03;0.03;;;12.20;99.90;;;;;;5012498;28;20022;-76
2021/12/11 13:29:58;;;;;;;0.00;0.00;;;12.20;99.90;;;;;;5012566;28;20030;-77